Time;durP1;ratioP1;P1;durP2;ratioP2;P2;SDS_P1;SDS_P2;PMS_P1;PMS_P2;Temp;Humidity;BMP_temperature;BMP_pressure;BME280_temperature;BME280_humidity;BME280_pressure;Samples;Min_cycle;Max_cycle;Signal;HPM_P1;HPM_P2
2024/03/27 00:02:13;;;;;;;32.73;29.77;;;7.30;78.50;;;;;;5031613;28;20196;-87
2024/03/27 00:04:38;;;;;;;33.80;31.23;;;7.30;78.90;;;;;;5032879;28;20260;-86
2024/03/27 00:07:04;;;;;;;30.97;28.67;;;7.20;79.00;;;;;;5031630;28;20208;-87
2024/03/27 00:09:29;;;;;;;31.60;29.17;;;7.20;79.10;;;;;;5033179;28;20177;-87
2024/03/27 00:11:55;;;;;;;32.57;29.90;;;7.10;79.30;;;;;;5032998;28;20271;-87
2024/03/27 00:14:21;;;;;;;31.03;28.83;;;7.00;79.30;;;;;;5032629;28;20220;-87
2024/03/27 00:16:46;;;;;;;31.13;28.37;;;7.00;79.50;;;;;;5032733;28;20275;-85
2024/03/27 00:19:13;;;;;;;30.57;28.23;;;7.00;79.70;;;;;;5034576;28;20204;-87
2024/03/27 00:21:39;;;;;;;30.87;28.33;;;6.90;79.80;;;;;;5036335;28;20222;-87
2024/03/27 00:24:05;;;;;;;30.97;28.10;;;6.90;79.90;;;;;;5035007;28;20655;-87
2024/03/27 00:26:31;;;;;;;31.37;28.97;;;6.90;79.80;;;;;;5036703;28;20180;-87
2024/03/27 00:28:57;;;;;;;30.17;27.87;;;6.90;79.80;;;;;;5035604;28;20181;-86
2024/03/27 00:31:23;;;;;;;19.33;17.57;;;6.80;79.90;;;;;;5036092;28;20168;-87
2024/03/27 00:33:49;;;;;;;19.37;17.77;;;6.80;79.90;;;;;;5036537;28;20200;-88
2024/03/27 00:36:14;;;;;;;18.87;17.37;;;6.80;80.00;;;;;;5036130;28;20161;-87
2024/03/27 00:38:40;;;;;;;19.80;17.80;;;6.70;79.90;;;;;;5036147;28;20200;-87
2024/03/27 00:41:06;;;;;;;19.37;17.67;;;6.60;80.30;;;;;;5036179;28;20544;-87
2024/03/27 00:43:32;;;;;;;19.20;17.60;;;6.60;80.60;;;;;;5035933;28;20220;-87
2024/03/27 00:46:02;;;;;;;20.37;18.57;;;6.50;80.70;;;;;;5035929;28;20207;-87
2024/03/27 00:48:27;;;;;;;19.87;18.07;;;6.50;80.90;;;;;;5035944;28;20177;-86
2024/03/27 00:50:53;;;;;;;20.00;18.27;;;6.50;81.00;;;;;;5035999;28;20234;-87
2024/03/27 00:53:18;;;;;;;18.17;16.40;;;6.50;81.10;;;;;;5034462;28;20287;-87
2024/03/27 00:55:54;;;;;;;18.23;16.60;;;6.50;81.30;;;;;;5034675;28;20180;-87
2024/03/27 00:58:20;;;;;;;19.00;17.30;;;6.60;81.20;;;;;;5034467;28;20200;-88
2024/03/27 01:00:45;;;;;;;18.07;16.33;;;6.60;81.10;;;;;;5034434;28;20180;-87
2024/03/27 01:03:11;;;;;;;17.70;16.20;;;6.60;81.00;;;;;;5035638;28;20278;-87
2024/03/27 01:05:40;;;;;;;19.30;17.33;;;6.60;81.00;;;;;;5034336;28;20180;-87
2024/03/27 01:08:05;;;;;;;18.67;16.97;;;6.60;81.00;;;;;;5034220;28;20172;-85
2024/03/27 01:10:31;;;;;;;19.23;17.63;;;6.60;81.10;;;;;;5035484;28;20177;-87
2024/03/27 01:12:57;;;;;;;18.37;16.67;;;6.50;81.20;;;;;;5035355;28;20744;-88
2024/03/27 01:15:22;;;;;;;17.70;15.90;;;6.60;81.20;;;;;;5035580;28;20290;-87
2024/03/27 01:17:50;;;;;;;17.40;15.77;;;6.60;81.20;;;;;;5035759;28;20177;-87
2024/03/27 01:20:16;;;;;;;18.30;16.60;;;6.70;81.20;;;;;;5034186;28;20187;-87
2024/03/27 01:22:42;;;;;;;19.23;17.17;;;6.70;81.10;;;;;;5034275;28;20200;-87
2024/03/27 01:25:08;;;;;;;16.93;15.37;;;6.80;81.00;;;;;;5035228;28;20181;-87
2024/03/27 01:27:34;;;;;;;19.60;16.67;;;6.80;80.80;;;;;;5035313;28;20173;-87
2024/03/27 01:30:00;;;;;;;17.17;15.63;;;6.70;80.80;;;;;;5033507;28;20694;-87
2024/03/27 01:32:25;;;;;;;17.50;15.93;;;6.80;80.70;;;;;;5033720;28;20231;-87
2024/03/27 01:34:51;;;;;;;18.50;16.20;;;6.80;80.70;;;;;;5033790;28;20353;-87
2024/03/27 01:37:18;;;;;;;18.37;16.57;;;6.80;80.60;;;;;;5033944;28;20208;-87
2024/03/27 01:39:43;;;;;;;28.53;26.20;;;6.70;80.50;;;;;;5034945;28;20652;-87
2024/03/27 01:42:09;;;;;;;27.77;25.57;;;6.80;80.50;;;;;;5035248;28;20232;-88
2024/03/27 01:44:35;;;;;;;28.20;26.00;;;6.70;80.50;;;;;;5035484;28;20223;-88
2024/03/27 01:47:01;;;;;;;28.33;26.13;;;6.80;80.50;;;;;;5034995;28;20612;-87
2024/03/27 01:49:27;;;;;;;29.07;26.67;;;6.70;80.40;;;;;;5033695;28;20191;-87
2024/03/27 01:51:53;;;;;;;30.60;28.07;;;6.70;80.40;;;;;;5033442;28;20209;-88
2024/03/27 01:54:19;;;;;;;27.53;25.43;;;6.60;80.50;;;;;;5034587;28;20201;-87
2024/03/27 01:56:45;;;;;;;30.17;27.53;;;6.60;80.70;;;;;;5034547;28;20688;-87
2024/03/27 01:59:11;;;;;;;29.43;26.87;;;6.50;80.70;;;;;;5033130;28;20200;-88
2024/03/27 02:01:37;;;;;;;28.67;26.37;;;6.60;80.70;;;;;;5034480;28;20184;-88
2024/03/27 02:04:02;;;;;;;28.57;26.37;;;6.50;80.80;;;;;;5033097;28;20246;-87
2024/03/27 02:06:28;;;;;;;28.13;26.03;;;6.50;81.00;;;;;;5034088;28;20176;-88
2024/03/27 02:08:54;;;;;;;28.73;26.43;;;6.50;81.10;;;;;;5034379;28;20184;-87
2024/03/27 02:11:22;;;;;;;25.73;23.80;;;6.50;81.10;;;;;;5034282;28;20649;-87
2024/03/27 02:13:48;;;;;;;29.10;26.73;;;6.40;81.20;;;;;;5033042;28;20220;-87
2024/03/27 02:16:13;;;;;;;28.77;26.57;;;6.40;81.40;;;;;;5032837;28;20234;-87
2024/03/27 02:18:39;;;;;;;27.23;25.10;;;6.30;81.50;;;;;;5034257;28;20580;-88
2024/03/27 02:21:08;;;;;;;27.43;25.10;;;6.30;81.60;;;;;;5034600;28;20173;-87
2024/03/27 02:23:52;;;;;;;27.33;24.77;;;6.30;81.70;;;;;;5034150;28;20672;-87
2024/03/27 02:26:25;;;;;;;26.67;24.17;;;6.30;81.90;;;;;;5032927;28;20247;-87
2024/03/27 02:28:51;;;;;;;28.27;25.97;;;6.30;82.10;;;;;;5034265;28;20165;-87
2024/03/27 02:31:17;;;;;;;26.17;23.97;;;6.30;82.20;;;;;;5032752;28;20173;-87
2024/03/27 02:33:42;;;;;;;27.43;25.17;;;6.30;82.50;;;;;;5032713;28;20250;-87
2024/03/27 02:36:08;;;;;;;26.03;23.83;;;6.30;82.70;;;;;;5034847;28;20183;-87
2024/03/27 02:38:33;;;;;;;27.20;24.70;;;6.30;82.70;;;;;;5033625;28;20177;-87
2024/03/27 02:40:59;;;;;;;26.00;23.53;;;6.40;82.60;;;;;;5031881;28;20267;-87
2024/03/27 02:43:24;;;;;;;26.60;24.40;;;6.50;82.50;;;;;;5032455;28;20288;-87
2024/03/27 02:45:50;;;;;;;26.27;24.10;;;6.50;82.40;;;;;;5032416;28;20532;-87
2024/03/27 02:48:17;;;;;;;27.37;24.67;;;6.70;82.40;;;;;;5032362;28;20176;-87
2024/03/27 02:50:43;;;;;;;28.17;25.67;;;6.70;82.20;;;;;;5033734;28;20180;-87
2024/03/27 02:53:08;;;;;;;19.07;17.20;;;6.80;82.10;;;;;;5033640;28;20223;-87
2024/03/27 02:55:34;;;;;;;18.67;16.93;;;6.80;81.90;;;;;;5032192;28;20684;-86
2024/03/27 02:57:59;;;;;;;18.60;16.90;;;6.80;81.80;;;;;;5033432;28;20315;-86
2024/03/27 03:00:25;;;;;;;18.67;16.97;;;6.90;81.80;;;;;;5033533;28;20244;-86
2024/03/27 03:02:50;;;;;;;18.67;17.00;;;6.90;81.80;;;;;;5032115;28;20242;-86
2024/03/27 03:05:16;;;;;;;17.00;15.40;;;6.90;81.80;;;;;;5032121;28;20176;-86
2024/03/27 03:07:41;;;;;;;17.57;15.87;;;6.90;81.90;;;;;;5032468;28;20267;-86
2024/03/27 03:10:08;;;;;;;17.23;15.53;;;6.90;81.90;;;;;;5033426;28;20183;-86
2024/03/27 03:12:33;;;;;;;17.37;15.77;;;6.90;82.00;;;;;;5032020;28;20319;-87
2024/03/27 03:14:59;;;;;;;18.70;16.07;;;6.90;82.10;;;;;;5032374;28;20291;-87
2024/03/27 03:17:24;;;;;;;17.97;16.27;;;6.90;82.10;;;;;;5034211;28;20183;-87
2024/03/27 03:19:50;;;;;;;16.43;15.10;;;6.90;81.90;;;;;;5033451;28;20526;-87
2024/03/27 03:22:16;;;;;;;16.67;15.03;;;6.90;81.80;;;;;;5033507;28;20192;-87
2024/03/27 03:24:42;;;;;;;18.70;16.90;;;6.90;81.80;;;;;;5032166;28;20223;-87
2024/03/27 03:27:08;;;;;;;17.40;15.80;;;6.90;81.70;;;;;;5032503;28;20184;-87
2024/03/27 03:29:33;;;;;;;17.67;15.83;;;6.90;81.60;;;;;;5032009;28;20184;-87
2024/03/27 03:31:59;;;;;;;17.90;15.97;;;6.80;81.50;;;;;;5031922;28;20212;-86
2024/03/27 03:34:24;;;;;;;17.53;15.90;;;6.80;81.40;;;;;;5031822;28;20204;-86
2024/03/27 03:36:50;;;;;;;17.80;16.30;;;6.70;81.60;;;;;;5033697;28;20219;-86
2024/03/27 03:39:16;;;;;;;17.60;15.90;;;6.70;81.70;;;;;;5031897;28;20272;-87
2024/03/27 03:41:41;;;;;;;16.37;14.87;;;6.60;81.70;;;;;;5033219;28;20227;-86
2024/03/27 03:44:07;;;;;;;16.90;15.37;;;6.60;81.80;;;;;;5032624;28;20208;-87
2024/03/27 03:46:32;;;;;;;17.07;15.43;;;6.60;81.80;;;;;;5032692;28;20188;-87
2024/03/27 03:48:58;;;;;;;19.67;16.27;;;6.60;81.70;;;;;;5033320;28;20181;-87
2024/03/27 03:51:23;;;;;;;18.10;16.50;;;6.70;81.70;;;;;;5033676;28;20192;-87
2024/03/27 03:53:49;;;;;;;18.63;16.63;;;6.70;81.40;;;;;;5035776;28;20273;-86
2024/03/27 03:56:14;;;;;;;18.43;16.83;;;6.70;81.10;;;;;;5036851;28;20255;-86
2024/03/27 03:58:40;;;;;;;26.03;24.00;;;6.80;80.90;;;;;;5037046;28;20617;-86
2024/03/27 04:01:06;;;;;;;27.80;25.63;;;6.70;80.70;;;;;;5036936;28;20648;-87
2024/03/27 04:03:32;;;;;;;28.27;25.63;;;6.70;80.80;;;;;;5036995;28;20212;-86
2024/03/27 04:05:59;;;;;;;26.53;24.47;;;6.70;80.80;;;;;;5035609;28;20219;-86
2024/03/27 04:08:24;;;;;;;27.13;25.00;;;6.70;80.90;;;;;;5036891;28;20179;-87
2024/03/27 04:10:50;;;;;;;27.30;25.23;;;6.60;81.10;;;;;;5035470;28;20180;-85
2024/03/27 04:13:15;;;;;;;25.43;23.40;;;6.60;81.20;;;;;;5036713;28;20197;-86
2024/03/27 04:15:42;;;;;;;27.20;25.00;;;6.50;81.40;;;;;;5036464;28;20544;-86
2024/03/27 04:18:08;;;;;;;27.20;24.77;;;6.50;81.40;;;;;;5036605;28;20607;-86
2024/03/27 04:20:34;;;;;;;27.57;25.30;;;6.50;81.50;;;;;;5036655;28;20200;-87
2024/03/27 04:22:59;;;;;;;27.67;25.27;;;6.40;81.60;;;;;;5035254;28;20196;-86
2024/03/27 04:25:25;;;;;;;26.87;24.67;;;6.40;81.70;;;;;;5035055;28;20653;-87
2024/03/27 04:27:51;;;;;;;27.17;24.93;;;6.30;81.70;;;;;;5036537;28;20177;-87
2024/03/27 04:30:17;;;;;;;27.57;25.23;;;6.30;81.70;;;;;;5036313;28;20542;-87
2024/03/27 04:32:43;;;;;;;27.97;25.77;;;6.30;81.80;;;;;;5034956;28;20574;-88
2024/03/27 04:35:09;;;;;;;27.53;25.23;;;6.30;81.70;;;;;;5034939;28;20646;-87
2024/03/27 04:37:35;;;;;;;27.53;25.50;;;6.30;81.80;;;;;;5036675;28;20208;-87
2024/03/27 04:40:00;;;;;;;28.33;26.13;;;6.20;82.00;;;;;;5034835;28;20172;-87
2024/03/27 04:42:26;;;;;;;27.00;25.00;;;6.20;82.30;;;;;;5035950;28;20247;-87
2024/03/27 04:44:52;;;;;;;29.97;27.57;;;6.10;82.40;;;;;;5034925;28;20176;-88
2024/03/27 04:47:17;;;;;;;29.67;27.37;;;5.90;82.30;;;;;;5035318;28;20195;-87
2024/03/27 04:49:43;;;;;;;29.03;26.97;;;6.00;82.80;;;;;;5036044;28;20657;-87
2024/03/27 04:52:08;;;;;;;31.10;28.70;;;6.00;82.80;;;;;;5035865;28;20276;-87
2024/03/27 04:54:34;;;;;;;32.20;29.67;;;6.00;82.80;;;;;;5035870;28;20201;-87
2024/03/27 04:56:59;;;;;;;31.47;29.07;;;6.10;82.60;;;;;;5035835;28;20192;-87
2024/03/27 04:59:24;;;;;;;32.10;29.53;;;6.00;82.40;;;;;;5035652;28;20189;-87
2024/03/27 05:01:50;;;;;;;33.20;30.60;;;6.00;82.60;;;;;;5034565;28;20205;-87
2024/03/27 05:04:16;;;;;;;33.53;30.87;;;6.00;82.60;;;;;;5035615;28;20299;-88
2024/03/27 05:06:42;;;;;;;32.93;30.50;;;6.00;82.60;;;;;;5034508;28;20180;-88
2024/03/27 05:09:10;;;;;;;36.17;33.40;;;6.00;82.60;;;;;;5035621;28;20177;-87
2024/03/27 05:11:36;;;;;;;35.03;32.47;;;5.90;82.40;;;;;;5034331;28;20214;-87
2024/03/27 05:14:02;;;;;;;32.57;30.00;;;5.90;82.50;;;;;;5035595;28;20282;-87
2024/03/27 05:16:27;;;;;;;28.53;26.03;;;6.00;82.60;;;;;;5035660;28;20560;-87
2024/03/27 05:18:53;;;;;;;27.90;25.70;;;6.20;82.50;;;;;;5035654;28;20181;-87
2024/03/27 05:21:18;;;;;;;26.37;24.20;;;6.40;82.40;;;;;;5035607;28;20614;-87
2024/03/27 05:23:44;;;;;;;26.43;24.33;;;6.50;82.20;;;;;;5034121;28;20222;-88
2024/03/27 05:26:09;;;;;;;24.87;22.77;;;6.50;82.00;;;;;;5035797;28;20207;-87
2024/03/27 05:28:35;;;;;;;23.53;21.53;;;6.50;82.00;;;;;;5035729;28;20223;-87
2024/03/27 05:31:00;;;;;;;25.80;23.60;;;6.50;82.10;;;;;;5034233;28;20180;-87
2024/03/27 05:33:26;;;;;;;23.67;21.37;;;6.50;82.30;;;;;;5033748;28;20197;-87
2024/03/27 05:35:51;;;;;;;25.17;23.13;;;6.50;82.30;;;;;;5034045;28;20200;-87
2024/03/27 05:38:17;;;;;;;24.63;22.30;;;6.50;82.40;;;;;;5035246;28;20232;-87
2024/03/27 05:40:42;;;;;;;24.17;22.17;;;6.50;82.50;;;;;;5034112;28;20175;-87
2024/03/27 05:43:08;;;;;;;24.33;22.27;;;6.50;82.40;;;;;;5035174;28;20199;-87
2024/03/27 05:45:33;;;;;;;25.53;23.17;;;6.50;82.50;;;;;;5035329;28;20173;-87
2024/03/27 05:47:59;;;;;;;24.57;22.10;;;6.40;82.60;;;;;;5034949;28;20172;-87
2024/03/27 05:50:25;;;;;;;23.97;21.73;;;6.30;82.70;;;;;;5034932;28;20676;-87
2024/03/27 05:52:50;;;;;;;21.40;15.57;;;6.40;82.80;;;;;;5034766;28;20196;-87
2024/03/27 05:55:16;;;;;;;18.80;16.47;;;6.40;82.70;;;;;;5034848;28;20204;-87
2024/03/27 05:57:41;;;;;;;17.97;16.27;;;6.40;82.80;;;;;;5033412;28;20173;-87
2024/03/27 06:00:09;;;;;;;18.80;15.97;;;6.30;83.00;;;;;;5033535;28;20296;-87
2024/03/27 06:02:35;;;;;;;17.47;16.07;;;6.40;83.10;;;;;;5033549;28;20235;-87
2024/03/27 06:05:01;;;;;;;17.03;15.53;;;6.30;83.00;;;;;;5033884;28;20571;-87
2024/03/27 06:07:26;;;;;;;16.77;15.30;;;6.30;83.00;;;;;;5034683;28;20196;-87
2024/03/27 06:09:52;;;;;;;17.30;15.47;;;6.40;82.90;;;;;;5033466;28;20181;-87
2024/03/27 06:12:17;;;;;;;17.30;15.10;;;6.50;82.90;;;;;;5034569;28;20205;-88
2024/03/27 06:14:43;;;;;;;15.90;14.20;;;6.50;82.80;;;;;;5034041;28;20660;-88
2024/03/27 06:17:08;;;;;;;16.87;15.27;;;6.50;82.90;;;;;;5034289;28;20168;-88
2024/03/27 06:19:34;;;;;;;16.63;14.73;;;6.40;83.10;;;;;;5034493;28;20213;-87
2024/03/27 06:21:59;;;;;;;17.20;15.60;;;6.30;83.30;;;;;;5034441;28;20247;-87
2024/03/27 06:24:25;;;;;;;17.07;15.43;;;6.30;83.50;;;;;;5033315;28;20180;-87
2024/03/27 06:26:51;;;;;;;26.27;18.23;;;6.30;83.70;;;;;;5033319;28;20219;-87
2024/03/27 06:29:16;;;;;;;21.40;17.43;;;6.60;83.80;;;;;;5033066;28;20263;-87
2024/03/27 06:31:42;;;;;;;19.07;17.23;;;6.80;83.20;;;;;;5033963;28;20280;-88
2024/03/27 06:34:07;;;;;;;18.87;16.87;;;6.80;83.20;;;;;;5034304;28;20696;-87
2024/03/27 06:36:33;;;;;;;19.30;17.13;;;6.80;83.30;;;;;;5034302;28;20173;-87
2024/03/27 06:39:00;;;;;;;18.17;16.50;;;7.00;83.30;;;;;;5034471;28;20172;-87
2024/03/27 06:41:26;;;;;;;23.93;18.10;;;7.20;82.30;;;;;;5032956;28;20180;-87
2024/03/27 06:43:51;;;;;;;27.80;18.77;;;7.40;81.50;;;;;;5034533;28;20180;-87
2024/03/27 06:46:20;;;;;;;18.47;16.77;;;7.50;81.50;;;;;;5032827;28;20181;-87
2024/03/27 06:48:56;;;;;;;18.27;16.23;;;7.60;81.20;;;;;;5034126;28;20246;-87
2024/03/27 06:51:22;;;;;;;18.43;16.80;;;7.60;81.20;;;;;;5034054;28;20621;-87
2024/03/27 06:53:47;;;;;;;18.83;16.93;;;7.70;81.30;;;;;;5032988;28;20211;-87
2024/03/27 06:56:13;;;;;;;20.07;17.90;;;7.80;80.70;;;;;;5034503;28;20255;-87
2024/03/27 06:58:39;;;;;;;19.37;17.67;;;7.80;80.30;;;;;;5034473;28;20200;-87
2024/03/27 07:01:04;;;;;;;24.43;18.30;;;7.90;79.90;;;;;;5034720;28;20169;-88
2024/03/27 07:03:30;;;;;;;19.03;17.43;;;8.10;79.70;;;;;;5034490;28;20203;-87
2024/03/27 07:05:55;;;;;;;19.20;17.60;;;8.20;79.40;;;;;;5032960;28;20581;-87
2024/03/27 07:08:21;;;;;;;18.27;16.67;;;8.20;78.80;;;;;;5033168;28;20176;-87
2024/03/27 07:10:46;;;;;;;19.13;17.33;;;8.20;78.60;;;;;;5035184;28;20177;-90
2024/03/27 07:13:12;;;;;;;19.63;18.03;;;8.30;78.90;;;;;;5033630;28;20193;-90
2024/03/27 07:15:37;;;;;;;20.47;18.77;;;8.40;78.40;;;;;;5034751;28;20204;-89
2024/03/27 07:18:03;;;;;;;21.20;19.20;;;8.50;77.80;;;;;;5032944;28;20182;-87
2024/03/27 07:20:29;;;;;;;21.70;19.90;;;8.60;77.90;;;;;;5034638;28;20173;-87
2024/03/27 07:22:55;;;;;;;21.27;19.57;;;8.70;77.40;;;;;;5034543;28;20617;-90
2024/03/27 07:25:20;;;;;;;22.70;20.67;;;8.80;77.10;;;;;;5032996;28;20188;-87
2024/03/27 07:27:46;;;;;;;21.83;19.63;;;8.90;76.50;;;;;;5032080;28;20612;-88
2024/03/27 07:30:11;;;;;;;19.63;17.90;;;9.00;76.60;;;;;;5033939;28;20211;-86
2024/03/27 07:32:37;;;;;;;21.20;19.40;;;9.10;76.80;;;;;;5033742;28;20202;-86
2024/03/27 07:35:04;;;;;;;22.83;20.50;;;9.20;75.50;;;;;;5033480;28;20226;-87
2024/03/27 07:37:30;;;;;;;29.57;27.20;;;9.20;74.90;;;;;;5032646;28;20180;-88
2024/03/27 07:39:55;;;;;;;30.87;27.93;;;9.20;75.00;;;;;;5032472;28;20172;-88
2024/03/27 07:42:21;;;;;;;29.73;27.33;;;9.30;74.80;;;;;;5032083;28;20193;-85
2024/03/27 07:44:47;;;;;;;30.90;27.90;;;9.30;74.50;;;;;;5031993;28;20184;-86
2024/03/27 07:47:12;;;;;;;26.97;24.97;;;9.40;75.70;;;;;;5033759;28;20580;-87
2024/03/27 07:49:38;;;;;;;30.57;28.17;;;9.50;76.20;;;;;;5032260;28;20555;-86
2024/03/27 07:52:03;;;;;;;29.27;26.97;;;9.50;75.10;;;;;;5032076;28;20197;-87
2024/03/27 07:54:29;;;;;;;29.97;27.60;;;9.50;75.40;;;;;;5033410;28;20255;-86
2024/03/27 07:57:05;;;;;;;30.33;27.83;;;9.60;75.60;;;;;;5031949;28;20176;-85
2024/03/27 07:59:31;;;;;;;30.73;28.20;;;9.70;75.30;;;;;;5033154;28;20226;-86
2024/03/27 08:01:56;;;;;;;31.00;28.57;;;9.70;74.80;;;;;;5031895;28;20193;-86
2024/03/27 08:04:22;;;;;;;30.70;28.30;;;9.80;75.00;;;;;;5032000;28;20173;-86
2024/03/27 08:06:48;;;;;;;30.13;27.80;;;9.90;75.00;;;;;;5032230;28;20660;-85
2024/03/27 08:09:13;;;;;;;30.87;28.07;;;10.00;74.50;;;;;;5033349;28;20256;-86
2024/03/27 08:11:39;;;;;;;30.33;27.23;;;10.20;74.70;;;;;;5033575;28;20235;-86
2024/03/27 08:14:05;;;;;;;31.73;29.13;;;10.30;73.80;;;;;;5033353;28;20227;-86
2024/03/27 08:16:30;;;;;;;30.93;28.60;;;10.30;72.80;;;;;;5033187;28;20715;-86
2024/03/27 08:18:56;;;;;;;32.03;29.43;;;10.40;71.90;;;;;;5031965;28;20173;-86
2024/03/27 08:21:21;;;;;;;30.77;28.37;;;10.50;71.60;;;;;;5032002;28;20180;-85
2024/03/27 08:23:49;;;;;;;31.53;28.93;;;10.60;72.30;;;;;;5032618;28;20275;-86
2024/03/27 08:26:14;;;;;;;32.07;29.27;;;10.70;72.10;;;;;;5033587;28;20180;-86
2024/03/27 08:28:40;;;;;;;33.10;30.07;;;10.80;72.00;;;;;;5033501;28;20176;-87
2024/03/27 08:31:06;;;;;;;32.57;29.87;;;10.90;72.00;;;;;;5033315;28;20169;-88
2024/03/27 08:33:32;;;;;;;32.10;29.30;;;10.90;70.80;;;;;;5031824;28;20247;-86
2024/03/27 08:35:57;;;;;;;33.97;30.67;;;11.00;70.00;;;;;;5032122;28;20164;-86
2024/03/27 08:38:23;;;;;;;32.90;30.33;;;11.10;70.40;;;;;;5032361;28;20600;-87
2024/03/27 08:40:52;;;;;;;32.87;30.37;;;11.20;69.80;;;;;;5035666;28;20227;-86
2024/03/27 08:43:19;;;;;;;34.60;31.57;;;11.30;70.60;;;;;;5035293;28;20203;-86
2024/03/27 08:45:45;;;;;;;34.77;31.50;;;11.30;68.60;;;;;;5036656;28;20173;-86
2024/03/27 08:48:11;;;;;;;34.43;31.80;;;11.40;67.60;;;;;;5036501;28;20187;-85
2024/03/27 08:50:40;;;;;;;24.43;22.30;;;11.40;69.10;;;;;;5035412;28;20586;-86
2024/03/27 08:53:06;;;;;;;24.70;22.40;;;11.50;69.10;;;;;;5036550;28;20193;-85
2024/03/27 08:55:38;;;;;;;24.93;22.80;;;11.60;69.50;;;;;;5034987;28;20201;-86
2024/03/27 08:58:03;;;;;;;25.27;23.10;;;11.70;68.90;;;;;;5036555;28;20184;-85
2024/03/27 09:00:29;;;;;;;25.80;23.67;;;11.80;68.40;;;;;;5036628;28;20168;-85
2024/03/27 09:02:55;;;;;;;25.13;23.00;;;11.80;67.60;;;;;;5035611;28;20222;-85
2024/03/27 09:05:21;;;;;;;25.00;23.00;;;11.80;67.20;;;;;;5034183;28;20181;-87
2024/03/27 09:07:46;;;;;;;25.30;23.13;;;11.90;67.50;;;;;;5036113;28;20176;-85
2024/03/27 09:10:12;;;;;;;26.10;23.60;;;12.10;68.30;;;;;;5035844;28;20542;-86
2024/03/27 09:12:37;;;;;;;26.00;23.90;;;12.40;68.50;;;;;;5034913;28;20668;-87
2024/03/27 09:15:04;;;;;;;26.33;23.83;;;12.70;68.20;;;;;;5035528;28;20239;-87
2024/03/27 09:17:29;;;;;;;26.50;24.07;;;12.80;65.70;;;;;;5035684;28;20176;-87
2024/03/27 09:19:55;;;;;;;26.57;24.30;;;13.00;64.80;;;;;;5035656;28;20165;-87
2024/03/27 09:22:20;;;;;;;26.67;24.37;;;13.00;64.00;;;;;;5035372;28;20200;-86
2024/03/27 09:24:46;;;;;;;27.57;25.13;;;13.00;64.80;;;;;;5034338;28;20547;-85
2024/03/27 09:27:11;;;;;;;25.97;23.57;;;13.20;64.60;;;;;;5034248;28;20177;-85
2024/03/27 09:29:37;;;;;;;25.60;23.50;;;13.30;64.90;;;;;;5035332;28;20234;-86
2024/03/27 09:32:02;;;;;;;25.40;23.20;;;13.50;63.20;;;;;;5035406;28;20189;-85
2024/03/27 09:34:30;;;;;;;25.67;23.47;;;13.60;63.90;;;;;;5033979;28;20673;-86
2024/03/27 09:36:55;;;;;;;25.30;23.03;;;13.70;63.50;;;;;;5035091;28;20226;-85
2024/03/27 09:39:22;;;;;;;26.93;24.53;;;13.70;62.40;;;;;;5034504;28;20185;-87
2024/03/27 09:41:48;;;;;;;27.83;25.00;;;13.80;61.40;;;;;;5035400;28;20284;-87
2024/03/27 09:44:15;;;;;;;27.33;24.93;;;13.80;61.20;;;;;;5035331;28;20263;-86
2024/03/27 09:46:41;;;;;;;28.13;25.33;;;13.70;62.10;;;;;;5035279;28;20184;-85
2024/03/27 09:49:09;;;;;;;26.77;24.60;;;13.60;63.00;;;;;;5034663;28;20206;-87
2024/03/27 09:51:35;;;;;;;26.80;24.13;;;13.60;62.00;;;;;;5033487;28;20681;-86
2024/03/27 09:54:06;;;;;;;27.63;25.13;;;13.70;62.60;;;;;;5034610;28;20216;-86
2024/03/27 09:56:38;;;;;;;27.53;25.03;;;13.80;62.00;;;;;;5034921;28;20641;-86
2024/03/27 09:59:05;;;;;;;26.20;24.10;;;13.90;61.80;;;;;;5034913;28;20196;-87
2024/03/27 10:01:31;;;;;;;27.13;24.93;;;14.00;61.70;;;;;;5034903;28;20662;-87
2024/03/27 10:03:59;;;;;;;27.13;24.83;;;14.10;60.70;;;;;;5033467;28;20176;-86
2024/03/27 10:06:25;;;;;;;28.30;25.90;;;14.30;60.80;;;;;;5034915;28;20188;-86
2024/03/27 10:08:50;;;;;;;27.80;25.40;;;14.50;59.60;;;;;;5033516;28;20565;-85
2024/03/27 10:11:16;;;;;;;26.85;24.63;;;14.80;60.70;;;;;;5035134;28;20172;-87
2024/03/27 10:13:42;;;;;;;28.17;25.60;;;15.00;59.70;;;;;;5033406;28;20244;-87
2024/03/27 10:16:11;;;;;;;26.80;24.50;;;15.20;59.80;;;;;;5033310;28;20181;-88
2024/03/27 10:18:40;;;;;;;27.33;25.13;;;15.30;58.80;;;;;;5033428;28;20226;-86
2024/03/27 10:21:06;;;;;;;27.80;25.55;;;15.50;58.30;;;;;;5034540;28;20196;-86
2024/03/27 10:23:32;;;;;;;27.67;25.17;;;15.60;57.20;;;;;;5034484;28;20200;-88
2024/03/27 10:26:07;;;;;;;26.67;24.38;;;15.60;58.30;;;;;;5033325;28;20168;-87
2024/03/27 10:28:34;;;;;;;27.58;25.17;;;15.80;55.90;;;;;;5032882;28;20650;-86
2024/03/27 10:31:02;;;;;;;28.02;25.63;;;15.80;54.30;;;;;;5034072;28;20189;-87
2024/03/27 10:33:28;;;;;;;27.60;25.30;;;15.90;55.70;;;;;;5033080;28;20196;-87
2024/03/27 10:35:54;;;;;;;28.58;26.17;;;16.00;54.90;;;;;;5034391;28;20258;-88
2024/03/27 10:38:20;;;;;;;26.25;24.10;;;16.10;56.10;;;;;;5033085;28;20169;-86
2024/03/27 10:40:52;;;;;;;28.88;26.02;;;16.20;55.60;;;;;;5034168;28;20172;-87
2024/03/27 10:43:48;;;;;;;27.92;25.38;;;16.00;54.20;;;;;;5034280;28;20272;-87
2024/03/27 10:46:14;;;;;;;28.45;25.92;;;15.90;54.90;;;;;;5025426;28;20677;-87
2024/03/27 10:48:41;;;;;;;28.17;25.88;;;15.70;54.60;;;;;;5032948;28;20176;-89
2024/03/27 10:51:07;;;;;;;28.27;25.63;;;15.60;55.50;;;;;;5034283;28;20238;-87
2024/03/27 10:53:37;;;;;;;28.50;25.98;;;15.80;56.90;;;;;;5033645;28;20266;-86
2024/03/27 10:56:02;;;;;;;27.38;25.20;;;16.00;55.90;;;;;;5032855;28;20173;-87
2024/03/27 10:58:29;;;;;;;27.17;24.98;;;16.20;56.10;;;;;;5033962;28;20208;-87
2024/03/27 11:00:56;;;;;;;38.25;35.45;;;16.20;49.20;;;;;;5032204;28;20525;-87
2024/03/27 11:03:26;;;;;;;39.85;36.63;;;16.00;53.90;;;;;;5032538;28;20199;-87
2024/03/27 11:05:52;;;;;;;38.20;35.38;;;16.20;55.50;;;;;;5033848;28;20183;-86
2024/03/27 11:08:19;;;;;;;39.72;36.22;;;16.70;51.80;;;;;;5032868;28;20708;-85
2024/03/27 11:10:44;;;;;;;37.50;34.45;;;17.00;50.80;;;;;;5032679;28;20168;-86
2024/03/27 11:13:11;;;;;;;39.03;35.85;;;17.00;51.40;;;;;;5033856;28;20272;-87
2024/03/27 11:15:43;;;;;;;27.35;25.13;;;17.00;48.80;;;;;;5033719;28;20285;-87
2024/03/27 11:18:18;;;;;;;27.92;25.67;;;17.00;48.10;;;;;;5033591;28;20256;-89
2024/03/27 11:20:51;;;;;;;27.48;25.15;;;16.70;50.50;;;;;;5033875;28;20164;-89
2024/03/27 11:23:16;;;;;;;28.20;25.67;;;16.70;51.80;;;;;;5033642;28;20192;-86
2024/03/27 11:25:52;;;;;;;28.42;25.92;;;17.00;52.50;;;;;;5032410;28;20549;-87
2024/03/27 11:28:21;;;;;;;28.27;25.85;;;17.30;51.30;;;;;;5033024;28;20179;-86
2024/03/27 11:30:48;;;;;;;28.55;26.13;;;17.50;51.20;;;;;;5032335;28;20177;-86
2024/03/27 11:33:14;;;;;;;28.50;26.17;;;17.40;50.40;;;;;;5032169;28;20207;-87
2024/03/27 11:35:41;;;;;;;28.42;26.00;;;17.20;47.60;;;;;;5033997;28;20306;-87
2024/03/27 11:38:07;;;;;;;29.00;26.58;;;17.10;50.80;;;;;;5032532;28;20172;-87
2024/03/27 11:40:33;;;;;;;29.65;27.10;;;16.80;51.90;;;;;;5033697;28;20176;-87
2024/03/27 11:43:00;;;;;;;30.60;28.10;;;16.70;51.50;;;;;;5033664;28;20669;-86
2024/03/27 11:45:26;;;;;;;30.38;27.63;;;16.30;51.40;;;;;;5032548;28;20188;-86
2024/03/27 11:47:56;;;;;;;30.73;28.17;;;16.30;53.60;;;;;;5033482;28;20259;-87
2024/03/27 11:50:22;;;;;;;30.20;27.70;;;16.20;53.70;;;;;;5032342;28;20204;-87
2024/03/27 11:52:48;;;;;;;29.63;27.15;;;16.30;54.10;;;;;;5033579;28;20626;-86
2024/03/27 11:55:15;;;;;;;28.52;25.88;;;16.30;54.30;;;;;;5031990;28;20360;-86
2024/03/27 11:57:41;;;;;;;28.98;26.65;;;16.30;54.80;;;;;;5031907;28;20189;-86
2024/03/27 12:00:10;;;;;;;29.83;27.33;;;16.20;55.40;;;;;;5033520;28;20197;-86
2024/03/27 12:02:36;;;;;;;29.80;26.98;;;16.20;55.60;;;;;;5032158;28;20192;-87
2024/03/27 12:05:06;;;;;;;29.15;26.77;;;16.20;56.80;;;;;;5031876;28;20179;-87
2024/03/27 12:07:35;;;;;;;29.88;27.30;;;16.20;56.40;;;;;;5033566;28;20176;-87
2024/03/27 12:10:05;;;;;;;29.30;26.80;;;16.40;56.50;;;;;;5033510;28;20238;-87
2024/03/27 12:12:31;;;;;;;30.27;27.38;;;16.50;54.40;;;;;;5033525;28;20709;-87
2024/03/27 12:14:57;;;;;;;29.85;27.15;;;16.90;55.20;;;;;;5035930;28;20208;-88
2024/03/27 12:17:37;;;;;;;30.27;27.48;;;16.80;54.00;;;;;;5035295;28;20179;-85
2024/03/27 12:20:04;;;;;;;29.80;27.35;;;17.00;53.10;;;;;;5035129;28;20544;-87
2024/03/27 12:22:31;;;;;;;29.90;27.60;;;16.70;54.70;;;;;;5034994;28;20197;-86
2024/03/27 12:24:56;;;;;;;29.67;27.25;;;16.80;54.90;;;;;;5036362;28;20172;-86
2024/03/27 12:27:28;;;;;;;30.95;28.25;;;16.50;56.30;;;;;;5036706;28;20672;-85
2024/03/27 12:29:54;;;;;;;29.35;26.95;;;16.70;54.50;;;;;;5036383;28;20240;-87